Time;durP1;ratioP1;P1;durP2;ratioP2;P2;SDS_P1;SDS_P2;PMS_P1;PMS_P2;Temp;Humidity;BMP_temperature;BMP_pressure;BME280_temperature;BME280_humidity;BME280_pressure;Samples;Min_cycle;Max_cycle;Signal;HPM_P1;HPM_P2
2023/10/25 00:00:30;;;;;;;151.13;44.40;;;7.90;99.90;;;;;;5080097;28;20126;-83
2023/10/25 00:02:55;;;;;;;160.48;43.58;;;7.80;99.90;;;;;;5061330;28;20023;-83
2023/10/25 00:05:21;;;;;;;123.60;39.17;;;7.70;99.90;;;;;;5082124;28;20111;-83
2023/10/25 00:07:47;;;;;;;114.55;38.63;;;7.60;99.90;;;;;;5062896;28;20481;-83
2023/10/25 00:10:13;;;;;;;257.95;49.72;;;7.60;99.90;;;;;;5076460;28;20024;-83
2023/10/25 00:12:39;;;;;;;206.63;47.90;;;7.50;99.90;;;;;;5081688;28;20024;-83
2023/10/25 00:15:06;;;;;;;153.23;39.88;;;7.50;99.90;;;;;;5097248;28;20494;-82
2023/10/25 00:17:31;;;;;;;155.18;41.78;;;7.50;99.90;;;;;;5066727;28;20032;-83
2023/10/25 00:23:45;;;;;;;207.35;41.97;;;7.50;99.90;;;;;;5093694;28;20134;-83
2023/10/25 00:26:10;;;;;;;236.20;43.80;;;7.50;99.90;;;;;;5084350;28;20138;-82
2023/10/25 00:28:37;;;;;;;260.60;43.88;;;7.50;99.90;;;;;;5079026;28;20028;-82
2023/10/25 00:31:03;;;;;;;233.48;42.83;;;7.40;99.90;;;;;;5078851;28;20112;-82
2023/10/25 00:33:28;;;;;;;178.07;41.67;;;7.40;99.90;;;;;;5063192;28;20119;-82
2023/10/25 00:35:54;;;;;;;238.43;42.95;;;7.30;99.90;;;;;;5085289;28;20487;-82
2023/10/25 00:38:21;;;;;;;154.93;37.92;;;7.30;99.90;;;;;;5060284;28;20038;-82
2023/10/25 00:40:46;;;;;;;116.00;34.88;;;7.30;99.90;;;;;;5084613;28;20114;-82
2023/10/25 00:43:19;;;;;;;101.85;33.13;;;7.30;99.90;;;;;;5063913;28;20047;-82
2023/10/25 00:46:11;;;;;;;113.35;34.50;;;7.20;99.90;;;;;;5067901;28;20470;-83
2023/10/25 00:48:37;;;;;;;;;;;7.10;99.90;;;;;;5068501;28;20066;-83
2023/10/25 00:51:03;;;;;;;110.72;34.08;;;7.20;99.90;;;;;;5083850;28;19907;-83
2023/10/25 00:53:32;;;;;;;97.65;32.17;;;7.10;99.90;;;;;;5072096;28;20024;-83
2023/10/25 00:56:00;;;;;;;104.20;35.17;;;7.10;99.90;;;;;;5065122;28;20553;-83
2023/10/25 00:58:26;;;;;;;113.70;33.25;;;7.10;99.90;;;;;;5086183;28;20051;-83
2023/10/25 01:00:55;;;;;;;143.57;36.85;;;7.10;99.90;;;;;;5067667;28;20039;-83
2023/10/25 01:03:21;;;;;;;124.43;34.47;;;7.10;99.90;;;;;;5097629;28;20072;-83
2023/10/25 01:05:47;;;;;;;106.75;35.35;;;7.00;99.90;;;;;;5069033;28;20034;-83
2023/10/25 01:08:20;;;;;;;142.82;39.88;;;7.00;99.90;;;;;;5098986;28;20092;-83
2023/10/25 01:10:50;;;;;;;164.85;42.22;;;7.00;99.90;;;;;;5071375;28;20043;-82
2023/10/25 01:13:17;;;;;;;117.05;36.20;;;7.00;99.90;;;;;;5082705;28;20035;-83
2023/10/25 01:15:43;;;;;;;149.07;40.30;;;7.00;99.90;;;;;;5067560;28;20027;-83
2023/10/25 01:18:09;;;;;;;138.10;40.15;;;7.00;99.90;;;;;;5065054;28;20483;-82
2023/10/25 01:20:36;;;;;;;163.77;42.70;;;7.00;99.90;;;;;;5088312;28;20028;-82
2023/10/25 01:23:02;;;;;;;129.20;39.42;;;7.10;99.90;;;;;;5066379;28;20398;-83
2023/10/25 01:25:27;;;;;;;145.18;37.63;;;7.10;99.90;;;;;;5076491;28;20024;-83
2023/10/25 01:27:53;;;;;;;117.88;33.50;;;7.20;99.90;;;;;;5067686;28;20039;-83
2023/10/25 01:30:19;;;;;;;149.88;34.38;;;7.20;99.90;;;;;;5063564;28;20031;-83
2023/10/25 01:32:53;;;;;;;176.88;36.88;;;7.20;99.90;;;;;;5083838;28;20024;-83
2023/10/25 01:35:19;;;;;;;282.83;40.17;;;7.40;99.90;;;;;;5066691;28;20386;-83
2023/10/25 01:37:45;;;;;;;445.60;42.67;;;7.40;99.90;;;;;;5084778;28;20043;-83
2023/10/25 01:40:49;;;;;;;98.03;30.38;;;7.50;99.90;;;;;;5068920;28;20648;-82
2023/10/25 01:43:14;;;;;;;370.65;41.03;;;7.50;99.90;;;;;;5081751;28;20031;-82
2023/10/25 01:45:40;;;;;;;432.65;43.47;;;7.60;99.90;;;;;;5083548;28;20028;-83
2023/10/25 01:48:06;;;;;;;337.15;41.00;;;7.70;99.90;;;;;;5066711;28;20028;-83
2023/10/25 01:50:31;;;;;;;444.52;44.15;;;7.80;99.90;;;;;;5085441;28;20020;-82
2023/10/25 01:52:57;;;;;;;250.95;36.13;;;7.80;99.90;;;;;;5067422;28;20085;-83
2023/10/25 01:55:23;;;;;;;347.95;41.25;;;7.80;99.90;;;;;;5061807;28;20035;-82
2023/10/25 01:57:48;;;;;;;739.50;57.40;;;7.90;99.90;;;;;;5084575;28;20096;-83
2023/10/25 02:00:15;;;;;;;136.50;32.58;;;7.90;99.90;;;;;;5064599;28;20039;-83
2023/10/25 02:02:41;;;;;;;571.85;49.80;;;8.00;99.90;;;;;;5068209;28;20108;-82
2023/10/25 02:05:07;;;;;;;137.43;30.23;;;8.00;99.90;;;;;;5100218;28;20059;-83
2023/10/25 02:07:34;;;;;;;131.60;32.33;;;8.00;99.90;;;;;;5083272;28;20031;-83
2023/10/25 02:10:00;;;;;;;122.00;29.58;;;8.10;99.90;;;;;;5063140;28;20024;-83
2023/10/25 02:12:25;;;;;;;566.40;49.20;;;8.10;99.90;;;;;;5068407;28;20020;-82
2023/10/25 02:14:51;;;;;;;203.88;32.10;;;8.10;99.90;;;;;;5081297;28;20486;-82
2023/10/25 02:17:17;;;;;;;382.40;42.25;;;8.10;99.90;;;;;;5079333;28;20038;-83
2023/10/25 02:19:45;;;;;;;88.07;28.52;;;8.10;99.90;;;;;;5065632;28;20063;-82
2023/10/25 02:22:11;;;;;;;361.45;38.85;;;8.10;99.90;;;;;;5064259;28;20448;-83
2023/10/25 02:24:37;;;;;;;258.50;38.38;;;8.10;99.90;;;;;;5083666;28;20442;-83
2023/10/25 02:27:03;;;;;;;192.50;36.63;;;8.10;99.90;;;;;;5066603;28;20056;-83
2023/10/25 02:29:29;;;;;;;128.65;34.72;;;8.10;99.90;;;;;;5061487;28;20071;-82
2023/10/25 02:31:54;;;;;;;217.77;35.25;;;8.10;99.90;;;;;;5068630;28;20028;-83
2023/10/25 02:34:20;;;;;;;114.78;30.98;;;8.10;99.90;;;;;;5061288;28;20468;-83
2023/10/25 02:36:57;;;;;;;237.80;37.70;;;8.00;99.90;;;;;;5065040;28;20024;-82
2023/10/25 02:39:23;;;;;;;261.55;38.92;;;8.00;99.90;;;;;;5062022;28;20032;-82
2023/10/25 02:41:49;;;;;;;265.95;39.42;;;7.90;99.90;;;;;;5083319;28;20024;-82
2023/10/25 02:44:15;;;;;;;163.70;37.80;;;7.90;99.90;;;;;;5062937;28;20035;-82
2023/10/25 02:46:41;;;;;;;274.90;38.08;;;8.00;99.90;;;;;;5068675;28;20068;-83
2023/10/25 02:49:07;;;;;;;204.38;35.38;;;7.90;99.90;;;;;;5058457;28;20032;-83
2023/10/25 02:51:32;;;;;;;303.02;39.65;;;8.00;99.90;;;;;;5074534;28;20024;-82
2023/10/25 02:53:58;;;;;;;167.63;33.13;;;8.00;99.90;;;;;;5078320;28;20028;-83
2023/10/25 02:56:24;;;;;;;210.88;33.45;;;8.00;99.90;;;;;;5066965;28;20027;-82
2023/10/25 02:58:49;;;;;;;494.50;46.08;;;8.10;99.90;;;;;;5060241;28;20591;-83
2023/10/25 03:01:21;;;;;;;212.15;35.42;;;8.10;99.90;;;;;;5085922;28;20028;-83
2023/10/25 03:03:46;;;;;;;;;;;8.10;99.90;;;;;;5075663;28;20044;-83
2023/10/25 03:06:12;;;;;;;220.57;38.53;;;8.10;99.90;;;;;;5079726;28;20460;-83
2023/10/25 03:08:38;;;;;;;180.80;34.60;;;8.10;99.90;;;;;;5082869;28;20505;-83
2023/10/25 03:11:03;;;;;;;183.48;33.20;;;8.10;99.90;;;;;;5080803;28;20039;-82
2023/10/25 03:13:30;;;;;;;169.55;35.10;;;8.10;99.90;;;;;;5077176;28;20131;-83
2023/10/25 03:15:57;;;;;;;251.27;40.03;;;8.10;99.90;;;;;;5065096;28;20020;-83
2023/10/25 03:18:24;;;;;;;257.15;40.25;;;8.10;99.90;;;;;;5078533;28;20077;-83
2023/10/25 03:20:49;;;;;;;183.63;33.85;;;8.00;99.90;;;;;;5066731;28;20027;-83
2023/10/25 03:23:15;;;;;;;197.80;34.53;;;8.00;99.90;;;;;;5077552;28;20068;-83
2023/10/25 03:25:41;;;;;;;312.55;37.67;;;8.00;99.90;;;;;;5110666;28;20027;-83
2023/10/25 03:28:06;;;;;;;197.13;35.95;;;7.90;99.90;;;;;;5068407;28;20040;-83
2023/10/25 03:30:32;;;;;;;203.65;34.17;;;7.90;99.90;;;;;;5065422;28;20076;-83
2023/10/25 03:32:58;;;;;;;195.15;34.20;;;7.80;99.90;;;;;;5075419;28;20036;-83
2023/10/25 03:35:25;;;;;;;157.32;32.83;;;7.70;99.90;;;;;;5068037;28;20019;-82
2023/10/25 03:37:50;;;;;;;169.95;33.08;;;7.70;99.90;;;;;;5076192;28;20032;-83
2023/10/25 03:40:16;;;;;;;161.95;31.65;;;7.60;99.90;;;;;;5069040;28;20088;-83
2023/10/25 03:42:42;;;;;;;163.43;30.73;;;7.70;99.90;;;;;;5083914;28;20467;-83
2023/10/25 03:45:08;;;;;;;138.00;29.92;;;7.60;99.90;;;;;;5063659;28;20123;-83
2023/10/25 03:47:34;;;;;;;172.45;30.35;;;7.60;99.90;;;;;;5061733;28;20032;-82
2023/10/25 03:50:01;;;;;;;141.43;29.70;;;7.50;99.90;;;;;;5082797;28;20047;-83
2023/10/25 03:52:28;;;;;;;172.48;31.42;;;7.50;99.90;;;;;;5079352;28;20636;-83
2023/10/25 03:54:54;;;;;;;366.48;40.47;;;7.60;99.90;;;;;;5077704;28;20028;-83
2023/10/25 03:57:20;;;;;;;392.38;42.00;;;7.60;99.90;;;;;;5065125;28;20398;-82
2023/10/25 03:59:46;;;;;;;319.77;37.47;;;7.70;99.90;;;;;;5079004;28;20028;-82
2023/10/25 04:02:11;;;;;;;226.43;36.60;;;7.70;99.90;;;;;;5082856;28;20078;-83
2023/10/25 04:05:08;;;;;;;310.08;40.50;;;7.70;99.90;;;;;;5064786;28;20023;-82
2023/10/25 04:07:34;;;;;;;438.30;51.38;;;7.70;99.90;;;;;;5061411;28;20028;-82
2023/10/25 04:09:59;;;;;;;207.18;42.28;;;7.70;99.90;;;;;;5064041;28;20028;-83
2023/10/25 04:12:37;;;;;;;393.00;51.55;;;7.80;99.90;;;;;;5059032;28;20060;-83
2023/10/25 04:15:22;;;;;;;391.00;44.50;;;7.80;99.90;;;;;;5062381;28;20059;-83
2023/10/25 04:17:48;;;;;;;223.48;41.95;;;7.80;99.90;;;;;;5063444;28;20058;-83
2023/10/25 04:20:44;;;;;;;344.50;50.70;;;7.90;99.90;;;;;;5076211;28;20032;-82
2023/10/25 04:23:10;;;;;;;379.15;51.75;;;7.90;99.90;;;;;;5085431;28;20036;-82
2023/10/25 04:25:36;;;;;;;510.23;66.07;;;8.00;99.90;;;;;;5085190;28;20027;-82
2023/10/25 04:28:01;;;;;;;316.63;55.63;;;8.00;99.90;;;;;;5086763;28;20060;-83
2023/10/25 04:30:27;;;;;;;433.25;53.78;;;7.90;99.90;;;;;;5069983;28;20019;-83
2023/10/25 04:32:53;;;;;;;305.55;44.67;;;7.90;99.90;;;;;;5062420;28;20024;-82
2023/10/25 04:35:25;;;;;;;326.83;43.22;;;8.00;99.90;;;;;;5070847;28;20036;-82
2023/10/25 04:37:51;;;;;;;258.05;41.47;;;8.00;99.90;;;;;;5078301;28;20106;-82
2023/10/25 04:40:16;;;;;;;475.38;50.00;;;8.10;99.90;;;;;;5072643;28;20131;-83
2023/10/25 04:42:46;;;;;;;455.83;43.17;;;8.10;99.90;;;;;;5082092;28;20066;-82
2023/10/25 04:45:11;;;;;;;198.95;35.35;;;8.10;99.90;;;;;;5072622;28;20115;-83
2023/10/25 04:47:37;;;;;;;296.75;41.95;;;8.10;99.90;;;;;;5065738;28;20195;-83
2023/10/25 04:50:04;;;;;;;396.48;43.33;;;8.10;99.90;;;;;;5072480;28;20054;-83
2023/10/25 04:52:30;;;;;;;221.20;36.63;;;8.10;99.90;;;;;;5084192;28;20449;-83
2023/10/25 04:54:57;;;;;;;244.80;39.63;;;8.10;99.90;;;;;;5066805;28;20020;-83
2023/10/25 04:57:23;;;;;;;172.60;52.05;;;8.10;99.90;;;;;;5068346;28;20043;-83
2023/10/25 04:59:48;;;;;;;300.52;47.63;;;8.10;99.90;;;;;;5082928;28;20036;-83
2023/10/25 05:02:14;;;;;;;356.15;48.03;;;8.10;99.90;;;;;;5085319;28;20043;-83
2023/10/25 05:04:40;;;;;;;524.75;52.25;;;8.10;99.90;;;;;;5085432;28;20023;-82
2023/10/25 05:07:07;;;;;;;714.95;57.17;;;8.10;99.90;;;;;;5078520;28;20039;-83
2023/10/25 05:09:32;;;;;;;354.88;38.67;;;8.10;99.90;;;;;;5087651;28;20028;-82
2023/10/25 05:12:03;;;;;;;450.02;43.83;;;8.00;99.90;;;;;;5079889;28;20039;-83
2023/10/25 05:14:30;;;;;;;534.50;49.10;;;8.00;99.90;;;;;;5088735;28;20157;-82
2023/10/25 05:16:56;;;;;;;392.83;43.00;;;8.00;99.90;;;;;;5073405;28;20035;-82
2023/10/25 05:19:22;;;;;;;338.45;39.58;;;7.90;99.90;;;;;;5082943;28;20032;-82
2023/10/25 05:21:50;;;;;;;556.75;47.95;;;7.90;99.90;;;;;;5065787;28;20036;-83
2023/10/25 05:24:16;;;;;;;334.80;35.63;;;7.80;99.90;;;;;;5084913;28;20032;-83
2023/10/25 05:26:43;;;;;;;386.98;39.35;;;7.80;99.90;;;;;;5063343;28;20495;-82
2023/10/25 05:29:09;;;;;;;126.70;29.75;;;7.80;99.90;;;;;;5100367;27;20055;-83
2023/10/25 05:31:39;;;;;;;474.00;42.30;;;7.80;99.90;;;;;;5052489;28;20021;-83
2023/10/25 05:34:05;;;;;;;436.05;39.17;;;7.70;99.90;;;;;;5077869;28;20474;-84
2023/10/25 05:36:31;;;;;;;218.23;36.47;;;7.80;99.90;;;;;;5082555;28;20034;-83
2023/10/25 05:39:00;;;;;;;471.30;58.67;;;7.80;99.90;;;;;;5071409;28;20101;-83
2023/10/25 05:41:29;;;;;;;754.92;77.72;;;7.90;99.90;;;;;;5094812;28;20019;-83
2023/10/25 05:44:16;;;;;;;513.47;65.97;;;7.90;99.90;;;;;;5078551;28;20486;-83
2023/10/25 05:46:42;;;;;;;749.30;71.50;;;8.00;99.90;;;;;;5079998;28;20054;-83
2023/10/25 05:49:08;;;;;;;901.83;78.32;;;8.00;99.90;;;;;;5079698;28;20024;-83
2023/10/25 05:51:34;;;;;;;266.83;46.10;;;8.00;99.90;;;;;;5094338;28;20030;-83
2023/10/25 05:54:00;;;;;;;666.78;63.65;;;8.00;99.90;;;;;;5065902;28;20114;-83
2023/10/25 05:56:27;;;;;;;466.20;54.47;;;8.00;99.90;;;;;;5076914;28;20025;-84
2023/10/25 05:58:56;;;;;;;668.42;68.03;;;8.10;99.90;;;;;;5105557;28;20035;-84
2023/10/25 06:01:37;;;;;;;1055.10;85.38;;;8.20;99.90;;;;;;5073043;28;20086;-83
2023/10/25 06:04:05;;;;;;;1148.90;92.67;;;8.20;99.90;;;;;;5061613;28;20107;-83
2023/10/25 06:06:33;;;;;;;1109.65;91.47;;;8.10;99.90;;;;;;5104152;28;20016;-83
2023/10/25 06:08:58;;;;;;;1070.30;88.20;;;8.10;99.90;;;;;;5098415;28;20511;-84
2023/10/25 06:11:25;;;;;;;1230.68;101.03;;;8.20;99.90;;;;;;5075944;28;20092;-83
2023/10/25 06:13:51;;;;;;;1253.70;100.13;;;8.20;99.90;;;;;;5092055;28;20043;-84
2023/10/25 06:16:16;;;;;;;1249.85;102.28;;;8.20;99.90;;;;;;5076543;28;20526;-83
2023/10/25 06:18:42;;;;;;;865.83;84.57;;;8.30;99.90;;;;;;5094847;28;20102;-83
2023/10/25 06:21:09;;;;;;;681.70;70.70;;;8.30;99.90;;;;;;5077803;28;20489;-83
2023/10/25 06:23:35;;;;;;;702.10;73.07;;;8.30;99.90;;;;;;5086643;28;20028;-84
2023/10/25 06:26:03;;;;;;;413.90;62.22;;;8.30;99.90;;;;;;5097315;28;20035;-83
2023/10/25 06:28:29;;;;;;;347.45;54.85;;;8.40;99.90;;;;;;5070935;28;20062;-83
2023/10/25 06:30:54;;;;;;;321.63;60.00;;;8.40;99.90;;;;;;5095659;28;20104;-83
2023/10/25 06:33:20;;;;;;;156.57;47.45;;;8.40;99.90;;;;;;5076069;28;20103;-83
2023/10/25 06:35:46;;;;;;;152.48;46.35;;;8.40;99.90;;;;;;5060809;28;20028;-84
2023/10/25 06:38:12;;;;;;;427.42;59.10;;;8.30;99.90;;;;;;5076612;28;20019;-83
2023/10/25 06:40:38;;;;;;;162.75;45.83;;;8.40;99.90;;;;;;5063217;28;20618;-83
2023/10/25 06:43:04;;;;;;;568.17;65.40;;;8.40;99.90;;;;;;5111165;28;20837;-84
2023/10/25 06:45:30;;;;;;;485.50;59.78;;;8.30;99.90;;;;;;5102859;28;20031;-83
2023/10/25 06:47:57;;;;;;;923.67;81.07;;;8.40;99.90;;;;;;5066707;28;20021;-83
2023/10/25 06:50:25;;;;;;;347.52;53.63;;;8.40;99.90;;;;;;5086433;28;20540;-84
2023/10/25 06:52:51;;;;;;;271.65;47.47;;;8.50;99.90;;;;;;5074978;28;20169;-83
2023/10/25 06:55:17;;;;;;;325.40;50.25;;;8.60;99.90;;;;;;5083958;28;20031;-83
2023/10/25 06:57:43;;;;;;;153.23;41.90;;;8.60;99.90;;;;;;5084046;28;20024;-84
2023/10/25 07:00:10;;;;;;;165.82;41.85;;;8.60;99.90;;;;;;5060645;28;20031;-83
2023/10/25 07:03:01;;;;;;;107.40;37.78;;;8.60;99.90;;;;;;5057005;28;20039;-83
2023/10/25 07:05:28;;;;;;;117.30;40.63;;;8.50;99.90;;;;;;5087877;28;20023;-82
2023/10/25 07:07:54;;;;;;;108.10;38.13;;;8.50;99.90;;;;;;5078041;28;20028;-83
2023/10/25 07:10:21;;;;;;;104.28;36.63;;;8.50;99.90;;;;;;5089082;28;20444;-83
2023/10/25 07:12:47;;;;;;;120.45;43.40;;;8.50;99.90;;;;;;5065875;28;20433;-83
2023/10/25 07:15:13;;;;;;;123.07;40.50;;;8.50;99.90;;;;;;5074353;28;20023;-83
2023/10/25 07:17:39;;;;;;;112.57;38.63;;;8.50;99.90;;;;;;5098753;28;20036;-84
2023/10/25 07:20:06;;;;;;;95.10;38.45;;;8.50;99.90;;;;;;5086584;28;20032;-83
2023/10/25 07:22:32;;;;;;;110.15;39.78;;;8.40;99.90;;;;;;5076492;28;20571;-83
2023/10/25 07:24:58;;;;;;;101.20;36.40;;;8.40;99.90;;;;;;5073180;28;20090;-83
2023/10/25 07:27:24;;;;;;;102.28;38.60;;;8.30;99.90;;;;;;5072442;28;20076;-83
2023/10/25 07:29:53;;;;;;;108.00;38.78;;;8.40;99.90;;;;;;5063775;28;20459;-83
2023/10/25 07:32:19;;;;;;;102.25;40.95;;;8.40;99.90;;;;;;5054596;28;20498;-83
2023/10/25 07:34:45;;;;;;;88.53;36.90;;;8.40;99.90;;;;;;5070856;28;20032;-83
2023/10/25 07:37:11;;;;;;;91.22;35.15;;;8.40;99.90;;;;;;5066646;28;20112;-83
2023/10/25 07:39:37;;;;;;;90.70;34.50;;;8.50;99.90;;;;;;5098708;28;20035;-83
2023/10/25 07:42:03;;;;;;;92.22;37.50;;;8.50;99.90;;;;;;5080048;28;20084;-83
2023/10/25 07:44:29;;;;;;;89.57;37.75;;;8.60;99.90;;;;;;5096830;28;20122;-83
2023/10/25 07:46:54;;;;;;;82.07;36.10;;;8.70;99.90;;;;;;5063860;28;20034;-84
2023/10/25 07:49:20;;;;;;;82.28;34.38;;;8.90;99.90;;;;;;5076872;28;20523;-83
2023/10/25 07:51:46;;;;;;;79.45;33.90;;;9.00;99.90;;;;;;5060131;28;20044;-83
2023/10/25 07:54:12;;;;;;;71.88;32.08;;;9.00;99.90;;;;;;5080899;28;20398;-84
2023/10/25 07:56:37;;;;;;;71.25;33.25;;;8.90;99.90;;;;;;5067579;28;20016;-84
2023/10/25 07:59:03;;;;;;;75.15;34.85;;;8.90;99.90;;;;;;5077956;28;20039;-83
2023/10/25 08:01:30;;;;;;;77.90;34.70;;;8.80;99.90;;;;;;5064315;28;20093;-83
2023/10/25 08:03:56;;;;;;;67.53;33.28;;;8.80;99.90;;;;;;5058553;28;21040;-84
2023/10/25 08:06:22;;;;;;;63.35;29.67;;;9.00;99.90;;;;;;5098063;28;20063;-83
2023/10/25 08:08:50;;;;;;;66.07;31.40;;;9.10;99.90;;;;;;5113022;28;20023;-83
2023/10/25 08:11:17;;;;;;;48.80;26.77;;;9.20;99.90;;;;;;5090247;28;20031;-84
2023/10/25 08:13:43;;;;;;;56.17;27.73;;;9.40;99.90;;;;;;5087937;28;20451;-83
2023/10/25 08:16:09;;;;;;;57.45;28.63;;;9.40;99.90;;;;;;5093636;28;20103;-83
2023/10/25 08:18:35;;;;;;;58.22;26.50;;;9.50;99.90;;;;;;5091173;28;20027;-84
2023/10/25 08:21:01;;;;;;;49.75;27.88;;;9.50;99.90;;;;;;5070497;28;20043;-84
2023/10/25 08:23:28;;;;;;;53.47;26.88;;;9.60;99.90;;;;;;5091073;28;20020;-84
2023/10/25 08:25:58;;;;;;;50.72;28.02;;;9.40;99.90;;;;;;5085592;28;20036;-84
2023/10/25 08:28:24;;;;;;;46.72;25.45;;;9.30;99.90;;;;;;5057624;28;20039;-84
2023/10/25 08:30:50;;;;;;;39.63;22.30;;;9.50;99.90;;;;;;5074982;28;20028;-84
2023/10/25 08:33:15;;;;;;;34.90;20.08;;;9.50;99.90;;;;;;5064745;28;20031;-84
2023/10/25 08:35:41;;;;;;;33.63;19.90;;;9.70;99.90;;;;;;5070633;28;20051;-84
2023/10/25 08:38:06;;;;;;;29.27;19.30;;;9.80;99.90;;;;;;5106186;28;20044;-84
2023/10/25 08:40:32;;;;;;;28.80;17.08;;;9.90;99.90;;;;;;5057974;28;20459;-84
2023/10/25 08:43:01;;;;;;;26.58;17.33;;;9.80;99.90;;;;;;5098146;28;20572;-84
2023/10/25 08:45:29;;;;;;;29.27;18.63;;;9.70;99.90;;;;;;5067301;28;20088;-83
2023/10/25 08:47:54;;;;;;;25.50;16.52;;;9.60;99.90;;;;;;5071231;28;20028;-84
2023/10/25 08:50:20;;;;;;;26.95;15.75;;;9.60;99.90;;;;;;5063566;28;20027;-84
2023/10/25 08:52:49;;;;;;;26.05;16.33;;;9.50;99.90;;;;;;5077411;28;20051;-84
2023/10/25 08:55:18;;;;;;;24.42;15.68;;;9.50;99.90;;;;;;5074724;28;20103;-84
2023/10/25 08:57:44;;;;;;;30.60;17.98;;;9.50;99.90;;;;;;5090378;28;20040;-84
2023/10/25 09:00:11;;;;;;;66.82;29.77;;;9.60;99.90;;;;;;5075406;28;20134;-84
2023/10/25 09:02:38;;;;;;;30.73;18.10;;;9.60;99.90;;;;;;5093590;28;20387;-84
2023/10/25 09:05:06;;;;;;;28.35;17.38;;;9.80;99.90;;;;;;5074845;28;20043;-84
2023/10/25 09:07:39;;;;;;;32.13;20.80;;;9.90;99.90;;;;;;5086174;28;20067;-84
2023/10/25 09:10:19;;;;;;;21.58;15.40;;;10.10;99.90;;;;;;5083967;28;20024;-84
2023/10/25 09:12:46;;;;;;;18.83;14.02;;;10.10;99.90;;;;;;5077293;28;20135;-84
2023/10/25 09:15:11;;;;;;;19.23;13.23;;;10.20;99.90;;;;;;5078806;28;20066;-84
2023/10/25 09:17:37;;;;;;;18.58;13.93;;;10.20;99.90;;;;;;5095668;28;20039;-84
2023/10/25 09:20:12;;;;;;;16.77;13.10;;;10.40;99.90;;;;;;5076861;28;20028;-85
2023/10/25 09:22:38;;;;;;;20.58;13.18;;;10.50;99.90;;;;;;5076722;28;20541;-84
2023/10/25 09:25:05;;;;;;;16.70;12.65;;;10.40;99.90;;;;;;5076869;28;20042;-84
2023/10/25 09:27:39;;;;;;;16.02;11.48;;;10.50;99.90;;;;;;5062924;28;20801;-84
2023/10/25 09:30:14;;;;;;;13.25;10.77;;;10.50;99.90;;;;;;5075185;28;20028;-84
2023/10/25 09:32:40;;;;;;;11.70;9.25;;;10.50;99.90;;;;;;5079013;28;20111;-84
2023/10/25 09:35:06;;;;;;;13.75;10.18;;;10.40;99.90;;;;;;5079739;28;20422;-84
2023/10/25 09:37:32;;;;;;;11.82;9.80;;;10.40;99.90;;;;;;5077108;28;20376;-85
2023/10/25 09:39:58;;;;;;;16.13;9.65;;;10.40;99.90;;;;;;5076368;28;20032;-84
2023/10/25 09:42:28;;;;;;;11.05;9.10;;;10.50;99.90;;;;;;5060242;28;20036;-84
2023/10/25 09:45:01;;;;;;;11.73;8.90;;;10.30;99.90;;;;;;5077694;28;20082;-84
2023/10/25 09:47:32;;;;;;;11.68;10.05;;;10.40;99.90;;;;;;5068220;28;20907;-84
2023/10/25 09:50:14;;;;;;;14.73;10.43;;;10.10;99.90;;;;;;5078722;28;20487;-84
2023/10/25 09:52:42;;;;;;;15.55;11.18;;;10.00;99.90;;;;;;5078546;28;20097;-84
2023/10/25 09:55:21;;;;;;;18.50;11.35;;;9.90;99.90;;;;;;5060082;28;20472;-84
2023/10/25 09:57:53;;;;;;;17.23;11.10;;;9.90;99.90;;;;;;5059359;28;20474;-84
2023/10/25 10:00:20;;;;;;;19.27;11.15;;;9.70;99.90;;;;;;5076028;28;20356;-85
2023/10/25 10:03:02;;;;;;;23.20;12.48;;;9.70;99.90;;;;;;5081971;28;20387;-85
2023/10/25 10:06:01;;;;;;;22.67;12.77;;;9.60;99.90;;;;;;5060105;28;20636;-85
2023/10/25 10:09:05;;;;;;;16.23;12.27;;;9.60;99.90;;;;;;5053746;28;20036;-85
2023/10/25 10:11:40;;;;;;;17.90;12.35;;;9.60;99.90;;;;;;5098548;28;20694;-85
2023/10/25 10:14:26;;;;;;;19.58;13.80;;;9.60;99.90;;;;;;5079151;28;20364;-84
2023/10/25 10:16:52;;;;;;;21.70;13.68;;;9.50;99.90;;;;;;5093495;28;20553;-84
2023/10/25 10:19:21;;;;;;;20.10;13.77;;;9.40;99.90;;;;;;5057425;28;20122;-84
2023/10/25 10:22:04;;;;;;;24.48;14.00;;;9.40;99.90;;;;;;5112057;28;20098;-84
2023/10/25 10:24:40;;;;;;;20.70;15.18;;;9.40;99.90;;;;;;5076678;28;20020;-84
2023/10/25 10:27:06;;;;;;;24.60;14.90;;;9.30;99.90;;;;;;5102558;28;20035;-84
2023/10/25 10:29:32;;;;;;;26.88;14.73;;;9.30;99.90;;;;;;5083423;28;20027;-84
2023/10/25 10:32:02;;;;;;;22.70;15.70;;;9.30;99.90;;;;;;5066916;28;20031;-84
2023/10/25 10:34:43;;;;;;;27.25;16.02;;;9.30;99.90;;;;;;5076802;28;20031;-84
2023/10/25 10:37:24;;;;;;;22.98;15.90;;;9.40;99.90;;;;;;5080878;28;20035;-84
2023/10/25 10:39:56;;;;;;;28.40;16.38;;;9.30;99.90;;;;;;5064457;28;20118;-84
2023/10/25 10:42:35;;;;;;;36.50;18.38;;;9.30;99.90;;;;;;5084409;28;20652;-84
2023/10/25 10:45:04;;;;;;;29.23;18.05;;;9.40;99.90;;;;;;5084858;28;20031;-84
2023/10/25 10:47:43;;;;;;;24.15;18.02;;;9.40;99.90;;;;;;5076418;28;20027;-84
2023/10/25 10:50:14;;;;;;;29.38;17.17;;;9.40;99.90;;;;;;5063468;28;20121;-84
2023/10/25 10:52:41;;;;;;;29.85;18.63;;;9.50;99.90;;;;;;5080110;28;20490;-84
2023/10/25 10:55:08;;;;;;;30.13;19.80;;;9.60;99.90;;;;;;5078864;28;20521;-84
2023/10/25 10:57:37;;;;;;;25.50;18.73;;;9.70;99.90;;;;;;5082613;28;20031;-84
2023/10/25 11:00:08;;;;;;;25.00;18.63;;;9.80;99.90;;;;;;5106411;28;20031;-83
2023/10/25 11:02:35;;;;;;;25.17;17.83;;;9.70;99.90;;;;;;5066370;28;20044;-83
2023/10/25 11:05:01;;;;;;;30.55;17.63;;;9.70;99.90;;;;;;5078417;28;20028;-84
2023/10/25 11:07:26;;;;;;;27.50;18.08;;;9.60;99.90;;;;;;5065268;28;20020;-83
2023/10/25 11:09:52;;;;;;;28.25;19.92;;;9.60;99.90;;;;;;5062580;28;20032;-84
2023/10/25 11:12:18;;;;;;;30.90;18.30;;;9.60;99.90;;;;;;5085022;28;20628;-83
2023/10/25 11:14:45;;;;;;;25.65;17.80;;;9.50;99.90;;;;;;5080328;28;20124;-84
2023/10/25 11:17:12;;;;;;;28.60;18.20;;;9.50;99.90;;;;;;5061576;28;20035;-84
2023/10/25 11:19:38;;;;;;;25.35;18.02;;;9.50;99.90;;;;;;5065004;28;20099;-84
2023/10/25 11:22:04;;;;;;;30.55;18.27;;;9.50;99.90;;;;;;5080577;28;20035;-84
2023/10/25 11:24:50;;;;;;;30.75;21.38;;;9.50;99.90;;;;;;5100941;28;20028;-84
2023/10/25 11:27:16;;;;;;;31.27;20.38;;;9.50;99.90;;;;;;5061547;28;20494;-84
2023/10/25 11:29:42;;;;;;;24.58;18.20;;;9.60;99.90;;;;;;5057592;28;20030;-84
2023/10/25 11:32:17;;;;;;;26.00;18.63;;;9.50;99.90;;;;;;5060776;28;20368;-84
2023/10/25 11:34:43;;;;;;;29.00;18.45;;;9.50;99.90;;;;;;5076694;28;20031;-84
2023/10/25 11:37:10;;;;;;;25.40;16.88;;;9.60;99.90;;;;;;5085400;28;20069;-84
2023/10/25 11:39:55;;;;;;;27.23;17.95;;;9.60;99.90;;;;;;5060903;28;20513;-84
2023/10/25 11:42:21;;;;;;;26.63;17.50;;;9.60;99.90;;;;;;5093359;28;20032;-83
2023/10/25 11:44:46;;;;;;;24.27;15.57;;;9.60;99.90;;;;;;5081069;28;20134;-84
2023/10/25 11:47:20;;;;;;;23.70;15.10;;;9.60;99.90;;;;;;5078514;28;20477;-84
2023/10/25 11:49:51;;;;;;;30.83;20.42;;;9.60;99.90;;;;;;5083353;28;20069;-84
2023/10/25 11:52:23;;;;;;;30.70;19.77;;;9.50;99.90;;;;;;5079103;28;20130;-85
2023/10/25 11:54:55;;;;;;;27.65;18.67;;;9.60;99.90;;;;;;5051818;28;20807;-84
2023/10/25 11:57:24;;;;;;;26.38;19.38;;;9.60;99.90;;;;;;5079334;28;20032;-84
2023/10/25 12:00:27;;;;;;;46.75;33.20;;;9.60;99.90;;;;;;5082153;28;20067;-84
2023/10/25 12:02:53;;;;;;;40.05;27.95;;;9.70;99.90;;;;;;5080229;28;20115;-84
2023/10/25 12:05:20;;;;;;;25.85;19.27;;;9.70;99.90;;;;;;5061721;28;20074;-85
2023/10/25 12:07:48;;;;;;;28.10;20.08;;;9.70;99.90;;;;;;5068533;28;20020;-84
2023/10/25 12:10:16;;;;;;;21.30;13.82;;;9.70;99.90;;;;;;5078747;28;20086;-84
2023/10/25 12:12:43;;;;;;;21.55;15.52;;;9.60;99.90;;;;;;5067131;28;20039;-83
2023/10/25 12:15:09;;;;;;;25.35;14.27;;;9.70;99.90;;;;;;5080851;28;20475;-83
2023/10/25 12:17:35;;;;;;;17.67;13.23;;;9.70;99.90;;;;;;5061179;28;20039;-84
2023/10/25 12:20:00;;;;;;;20.17;14.18;;;9.70;99.90;;;;;;5081953;28;20039;-84
2023/10/25 12:22:26;;;;;;;24.52;13.55;;;9.80;99.90;;;;;;5064102;28;20023;-84
2023/10/25 12:24:51;;;;;;;21.50;13.95;;;9.70;99.90;;;;;;5100458;28;20108;-84
2023/10/25 12:27:17;;;;;;;22.50;15.27;;;9.70;99.90;;;;;;5066191;28;20051;-84
2023/10/25 12:29:44;;;;;;;20.95;14.93;;;9.70;99.90;;;;;;5057961;28;20028;-83
2023/10/25 12:32:10;;;;;;;23.15;14.93;;;9.80;99.90;;;;;;5064042;28;20123;-84
2023/10/25 12:34:35;;;;;;;20.48;14.57;;;9.90;99.90;;;;;;5075771;28;20115;-84
2023/10/25 12:37:01;;;;;;;20.80;15.98;;;9.90;99.90;;;;;;5062224;28;20035;-84
2023/10/25 12:39:27;;;;;;;29.95;22.52;;;9.90;99.90;;;;;;5077977;28;20032;-84